createdAt,value
2022-10-16T00:00:56.543Z,6.13
2022-10-16T00:02:06.054Z,6.13
2022-10-16T00:03:10.285Z,6.95
2022-10-16T00:04:13.779Z,6.10
2022-10-16T00:05:16.385Z,8.23
2022-10-16T00:06:20.527Z,7.40
2022-10-16T00:07:30.015Z,7.13
2022-10-16T00:08:33.673Z,6.73
2022-10-16T00:09:36.258Z,5.95
2022-10-16T00:10:41.177Z,5.93
2022-10-16T00:11:43.805Z,4.03
2022-10-16T00:12:54.028Z,4.85
2022-10-16T00:13:57.750Z,6.43
2022-10-16T00:15:01.256Z,5.32
2022-10-16T00:16:03.826Z,6.97
2022-10-16T00:17:07.282Z,7.15
2022-10-16T00:18:16.067Z,5.38
2022-10-16T00:19:19.577Z,5.68
2022-10-16T00:20:22.139Z,6.10
2022-10-16T00:21:26.390Z,5.53
2022-10-16T00:22:29.036Z,5.15
2022-10-16T00:23:39.067Z,6.68
2022-10-16T00:24:41.596Z,5.70
2022-10-16T00:25:46.528Z,6.70
2022-10-16T00:26:51.256Z,6.80
2022-10-16T00:27:54.690Z,6.85
2022-10-16T00:29:04.123Z,5.70
2022-10-16T00:30:09.339Z,6.43
2022-10-16T00:31:13.038Z,6.57
2022-10-16T00:32:16.506Z,4.90
2022-10-16T00:33:19.112Z,6.55
2022-10-16T00:34:29.040Z,5.85
2022-10-16T00:35:32.437Z,5.72
2022-10-16T00:36:35.926Z,5.30
2022-10-16T00:37:38.509Z,5.60
2022-10-16T00:38:42.081Z,6.05
2022-10-16T00:39:51.041Z,6.63
2022-10-16T00:40:55.858Z,5.85
2022-10-16T00:42:05.014Z,5.57
2022-10-16T00:43:12.478Z,5.60
2022-10-16T00:44:40.064Z,5.53
2022-10-16T00:45:50.090Z,6.45
2022-10-16T00:47:01.216Z,7.07
2022-10-16T00:48:12.995Z,6.23
2022-10-16T00:49:18.297Z,6.28
2022-10-16T00:50:24.079Z,5.82
2022-10-16T00:51:40.057Z,4.93
2022-10-16T00:52:46.368Z,4.75
2022-10-16T00:53:48.985Z,5.53
2022-10-16T00:54:52.812Z,6.40
2022-10-16T00:55:56.799Z,5.85
2022-10-16T00:57:08.081Z,5.40
2022-10-16T00:58:11.371Z,5.35
2022-10-16T00:59:17.808Z,5.75
2022-10-16T01:00:22.447Z,5.17
2022-10-16T01:01:32.245Z,5.82
2022-10-16T01:02:41.021Z,5.32
2022-10-16T01:03:44.488Z,6.05
2022-10-16T01:04:49.250Z,5.35
2022-10-16T01:05:56.795Z,5.90
2022-10-16T01:07:11.044Z,4.88
2022-10-16T01:08:16.688Z,4.57
2022-10-16T01:09:29.042Z,5.97
2022-10-16T01:10:34.541Z,5.13
2022-10-16T01:11:43.509Z,4.47
2022-10-16T01:12:56.083Z,4.43
2022-10-16T01:14:02.384Z,4.60
2022-10-16T01:15:10.154Z,4.85
2022-10-16T01:16:15.098Z,4.72
2022-10-16T01:17:20.587Z,5.27
2022-10-16T01:18:32.101Z,5.03
2022-10-16T01:19:43.884Z,5.60
2022-10-16T01:20:49.984Z,4.77
2022-10-16T01:21:55.034Z,5.43
2022-10-16T01:23:15.189Z,3.83
2022-10-16T01:24:29.060Z,5.57
2022-10-16T01:25:37.271Z,3.37
2022-10-16T01:26:47.621Z,4.87
2022-10-16T01:27:52.056Z,4.30
2022-10-16T01:28:58.182Z,3.73
2022-10-16T01:30:10.044Z,6.38
2022-10-16T01:31:14.270Z,4.50
2022-10-16T01:32:18.649Z,5.10
2022-10-16T01:33:23.640Z,4.83
2022-10-16T01:34:34.037Z,4.05
2022-10-16T01:35:39.004Z,4.32
2022-10-16T01:36:43.085Z,4.53
2022-10-16T01:37:49.557Z,4.93
2022-10-16T01:39:01.055Z,5.63
2022-10-16T01:40:08.260Z,5.68
2022-10-16T01:41:19.046Z,5.63
2022-10-16T01:42:24.482Z,5.37
2022-10-16T01:43:30.715Z,5.78
2022-10-16T01:44:35.362Z,5.07
2022-10-16T01:45:38.491Z,4.97
2022-10-16T01:46:50.051Z,5.40
2022-10-16T01:48:01.247Z,4.07
2022-10-16T01:49:04.808Z,5.00
2022-10-16T01:50:09.215Z,5.82
2022-10-16T01:51:21.078Z,4.50
2022-10-16T01:52:26.455Z,4.03
2022-10-16T01:53:29.368Z,4.53
2022-10-16T01:54:33.909Z,3.83
2022-10-16T01:55:38.909Z,5.37
2022-10-16T01:56:49.073Z,4.13
2022-10-16T01:57:52.209Z,4.27
2022-10-16T01:58:58.379Z,3.77
2022-10-16T02:00:03.621Z,4.13
2022-10-16T02:01:14.093Z,4.00
2022-10-16T02:02:17.383Z,4.37
2022-10-16T02:03:22.280Z,4.93
2022-10-16T02:04:26.296Z,4.40
2022-10-16T02:05:31.640Z,4.47
2022-10-16T02:06:42.044Z,5.30
2022-10-16T02:07:44.738Z,4.70
2022-10-16T02:08:49.262Z,4.67
2022-10-16T02:09:51.975Z,4.03
2022-10-16T02:10:55.505Z,4.70
2022-10-16T02:12:06.091Z,5.20
2022-10-16T02:13:13.483Z,4.60
2022-10-16T02:14:17.723Z,3.30
2022-10-16T02:15:21.220Z,3.77
2022-10-16T02:16:34.176Z,4.17
2022-10-16T02:17:44.100Z,4.80
2022-10-16T02:18:46.664Z,4.63
2022-10-16T02:19:51.299Z,3.83
2022-10-16T02:20:57.202Z,4.43
2022-10-16T02:22:01.803Z,5.27
2022-10-16T02:23:12.118Z,3.77
2022-10-16T02:24:18.967Z,3.87
2022-10-16T02:25:24.077Z,4.17
2022-10-16T02:26:33.726Z,3.97
2022-10-16T02:27:37.423Z,4.67
2022-10-16T02:28:49.299Z,3.60
2022-10-16T02:29:59.277Z,4.73
2022-10-16T02:31:04.665Z,4.00
2022-10-16T02:32:14.317Z,5.03
2022-10-16T02:33:19.046Z,3.57
2022-10-16T02:34:30.103Z,4.77
2022-10-16T02:35:34.582Z,3.67
2022-10-16T02:36:37.594Z,4.27
2022-10-16T02:37:41.660Z,4.67
2022-10-16T02:38:44.253Z,4.97
2022-10-16T02:39:54.075Z,3.65
2022-10-16T02:40:56.852Z,3.67
2022-10-16T02:42:00.309Z,4.18
2022-10-16T02:43:05.000Z,4.57
2022-10-16T02:44:15.097Z,4.53
2022-10-16T02:45:19.008Z,3.77
2022-10-16T02:46:22.513Z,4.68
2022-10-16T02:47:45.033Z,4.38
2022-10-16T02:48:48.481Z,2.80
2022-10-16T02:49:57.120Z,3.78
2022-10-16T02:51:00.655Z,3.50
2022-10-16T02:52:03.276Z,5.30
2022-10-16T02:53:06.756Z,3.63
2022-10-16T02:54:09.420Z,4.40
2022-10-16T02:55:19.069Z,4.35
2022-10-16T02:56:28.097Z,4.20
2022-10-16T02:57:32.222Z,3.45
2022-10-16T02:58:34.758Z,3.75
2022-10-16T02:59:38.318Z,3.25
2022-10-16T03:00:43.091Z,3.13
2022-10-16T03:01:53.101Z,4.68
2022-10-16T03:02:55.639Z,4.00
2022-10-16T03:03:59.160Z,4.15
2022-10-16T03:05:01.707Z,4.25
2022-10-16T03:06:05.233Z,3.78
2022-10-16T03:07:15.061Z,4.90
2022-10-16T03:08:18.530Z,5.07
2022-10-16T03:09:28.104Z,4.88
2022-10-16T03:10:31.609Z,4.32
2022-10-16T03:11:34.145Z,3.75
2022-10-16T03:12:37.690Z,3.40
2022-10-16T03:13:40.339Z,4.78
2022-10-16T03:14:50.125Z,3.88
2022-10-16T03:15:53.997Z,4.40
2022-10-16T03:16:57.610Z,4.80
2022-10-16T03:18:00.548Z,4.18
2022-10-16T03:19:17.265Z,4.70
2022-10-16T03:20:26.109Z,3.28
2022-10-16T03:21:29.684Z,4.95
2022-10-16T03:22:32.212Z,3.53
2022-10-16T03:23:35.664Z,3.90
2022-10-16T03:24:38.212Z,4.00
2022-10-16T03:25:48.458Z,4.97
2022-10-16T03:26:51.105Z,3.40
2022-10-16T03:28:02.101Z,4.03
2022-10-16T03:29:05.114Z,4.22
2022-10-16T03:30:09.110Z,4.47
2022-10-16T03:31:19.097Z,3.38
2022-10-16T03:32:22.830Z,4.27
2022-10-16T03:33:25.442Z,4.28
2022-10-16T03:34:28.983Z,3.03
2022-10-16T03:35:31.521Z,3.58
2022-10-16T03:36:41.063Z,3.77
2022-10-16T03:37:43.689Z,3.83
2022-10-16T03:38:47.171Z,4.60
2022-10-16T03:39:49.824Z,3.43
2022-10-16T03:41:00.085Z,3.30
2022-10-16T03:42:03.707Z,4.47
2022-10-16T03:43:13.084Z,3.93
2022-10-16T03:44:16.579Z,4.03
2022-10-16T03:45:19.407Z,4.90
2022-10-16T03:46:24.229Z,4.30
2022-10-16T03:47:48.088Z,4.00
2022-10-16T03:48:50.643Z,3.37
2022-10-16T03:49:54.117Z,4.90
2022-10-16T03:50:56.664Z,4.77
2022-10-16T03:52:00.188Z,4.30
2022-10-16T03:53:09.119Z,4.15
2022-10-16T03:54:12.923Z,4.23
2022-10-16T03:55:15.609Z,3.87
2022-10-16T03:56:19.084Z,3.63
2022-10-16T03:57:21.775Z,4.97
2022-10-16T03:58:32.079Z,4.17
2022-10-16T03:59:34.721Z,3.60
2022-10-16T04:00:38.167Z,4.50
2022-10-16T04:01:41.991Z,5.23
2022-10-16T04:02:52.082Z,4.67
2022-10-16T04:03:55.575Z,3.77
2022-10-16T04:04:58.096Z,4.07
2022-10-16T04:06:01.546Z,3.70
2022-10-16T04:07:04.119Z,5.03
2022-10-16T04:08:14.094Z,3.63
2022-10-16T04:09:16.620Z,4.03
2022-10-16T04:10:27.094Z,4.30
2022-10-16T04:11:29.632Z,4.23
2022-10-16T04:12:33.089Z,4.53
2022-10-16T04:13:35.729Z,4.20
2022-10-16T04:14:39.270Z,5.03
2022-10-16T04:15:48.140Z,4.50
2022-10-16T04:16:52.934Z,5.00
2022-10-16T04:17:55.799Z,3.93
2022-10-16T04:18:59.250Z,4.43
2022-10-16T04:20:01.806Z,3.97
2022-10-16T04:21:13.094Z,5.13
2022-10-16T04:22:22.109Z,3.70
2022-10-16T04:23:25.611Z,3.93
2022-10-16T04:24:28.206Z,5.07
2022-10-16T04:25:38.153Z,3.33
2022-10-16T04:26:40.690Z,4.33
2022-10-16T04:27:51.119Z,4.37
2022-10-16T04:28:53.712Z,4.37
2022-10-16T04:29:57.237Z,5.53
2022-10-16T04:31:00.778Z,4.13
2022-10-16T04:32:11.120Z,4.83
2022-10-16T04:33:15.021Z,3.87
2022-10-16T04:34:17.706Z,3.97
2022-10-16T04:35:21.680Z,4.80
2022-10-16T04:36:26.799Z,4.50
2022-10-16T04:37:39.082Z,4.40
2022-10-16T04:38:41.810Z,3.70
2022-10-16T04:39:45.970Z,3.73
2022-10-16T04:40:48.461Z,4.37
2022-10-16T04:41:51.931Z,4.80
2022-10-16T04:43:01.119Z,3.67
2022-10-16T04:44:04.751Z,4.40
2022-10-16T04:45:10.951Z,4.73
2022-10-16T04:46:17.047Z,3.50
2022-10-16T04:47:42.109Z,3.73
2022-10-16T04:48:52.093Z,5.23
2022-10-16T04:49:54.660Z,3.27
2022-10-16T04:50:58.121Z,4.10
2022-10-16T04:52:07.101Z,4.50
2022-10-16T04:53:17.125Z,5.70
2022-10-16T04:54:26.151Z,3.97
2022-10-16T04:55:29.742Z,4.77
2022-10-16T04:56:33.550Z,4.53
2022-10-16T04:57:36.101Z,5.37
2022-10-16T04:58:39.562Z,3.77
2022-10-16T04:59:48.167Z,4.57
2022-10-16T05:00:51.646Z,5.37
2022-10-16T05:01:54.183Z,5.27
2022-10-16T05:03:00.632Z,5.60
2022-10-16T05:04:03.239Z,5.47
2022-10-16T05:05:14.103Z,4.73
2022-10-16T05:06:23.155Z,5.40
2022-10-16T05:07:26.909Z,4.20
2022-10-16T05:08:29.599Z,4.50
2022-10-16T05:09:33.083Z,5.30
2022-10-16T05:10:35.627Z,4.40
2022-10-16T05:11:46.133Z,5.47
2022-10-16T05:12:48.701Z,4.73
2022-10-16T05:13:55.112Z,4.23
2022-10-16T05:14:59.738Z,5.77
2022-10-16T05:16:10.138Z,5.40
2022-10-16T05:17:12.702Z,4.73
2022-10-16T05:18:17.545Z,5.67
2022-10-16T05:19:27.195Z,5.83
2022-10-16T05:20:31.570Z,5.90
2022-10-16T05:21:41.149Z,4.43
2022-10-16T05:22:44.576Z,5.50
2022-10-16T05:23:47.072Z,4.70
2022-10-16T05:24:50.539Z,5.63
2022-10-16T05:25:56.697Z,5.17
2022-10-16T05:27:07.114Z,6.17
2022-10-16T05:28:09.640Z,5.00
2022-10-16T05:29:20.100Z,6.43
2022-10-16T05:30:22.865Z,5.30
2022-10-16T05:31:26.337Z,5.47
2022-10-16T05:32:28.863Z,5.33
2022-10-16T05:33:40.172Z,5.10
2022-10-16T05:34:42.990Z,5.83
2022-10-16T05:35:46.501Z,4.60
2022-10-16T05:36:52.089Z,5.03
2022-10-16T05:37:55.611Z,4.93
2022-10-16T05:39:05.135Z,6.03
2022-10-16T05:40:09.152Z,4.37
2022-10-16T05:41:11.720Z,5.83
2022-10-16T05:42:15.624Z,4.77
2022-10-16T05:43:25.127Z,5.83
2022-10-16T05:44:28.626Z,5.33
2022-10-16T05:45:31.192Z,5.37
2022-10-16T05:46:34.999Z,4.40
2022-10-16T05:47:45.419Z,6.67
2022-10-16T05:48:56.092Z,4.87
2022-10-16T05:49:59.549Z,5.50
2022-10-16T05:51:02.767Z,4.40
2022-10-16T05:52:06.360Z,6.07
2022-10-16T05:53:08.923Z,5.77
2022-10-16T05:54:19.103Z,6.77
2022-10-16T05:55:21.630Z,5.27
2022-10-16T05:56:25.151Z,4.67
2022-10-16T05:57:28.011Z,6.07
2022-10-16T05:58:32.462Z,4.57
2022-10-16T05:59:41.137Z,5.20
2022-10-16T06:00:44.745Z,5.37
2022-10-16T06:01:48.257Z,5.80
2022-10-16T06:02:50.780Z,4.57
2022-10-16T06:04:02.207Z,6.43
2022-10-16T06:05:04.930Z,6.77
2022-10-16T06:06:12.493Z,5.93
2022-10-16T06:07:15.188Z,5.57
2022-10-16T06:08:18.678Z,5.50
2022-10-16T06:09:28.111Z,5.03
2022-10-16T06:10:31.613Z,6.03
2022-10-16T06:11:42.116Z,5.10
2022-10-16T06:12:44.653Z,6.10
2022-10-16T06:13:55.160Z,6.07
2022-10-16T06:14:57.707Z,6.57
2022-10-16T06:16:01.998Z,5.77
2022-10-16T06:17:05.503Z,5.33
2022-10-16T06:18:08.045Z,6.70
2022-10-16T06:19:19.127Z,6.30
2022-10-16T06:20:28.191Z,5.13
2022-10-16T06:21:31.887Z,7.03
2022-10-16T06:22:34.476Z,7.13
2022-10-16T06:23:37.987Z,6.20
2022-10-16T06:24:40.568Z,6.37
2022-10-16T06:25:50.185Z,6.93
2022-10-16T06:26:53.748Z,4.57
2022-10-16T06:27:56.266Z,5.97
2022-10-16T06:29:00.797Z,6.05
2022-10-16T06:30:04.825Z,4.55
2022-10-16T06:31:15.130Z,5.63
2022-10-16T06:32:18.701Z,6.30
2022-10-16T06:33:21.221Z,5.30
2022-10-16T06:34:26.142Z,5.10
2022-10-16T06:35:37.143Z,5.10
2022-10-16T06:36:47.149Z,5.30
2022-10-16T06:37:49.737Z,5.03
2022-10-16T06:38:53.182Z,5.70
2022-10-16T06:39:55.705Z,4.87
2022-10-16T06:40:59.198Z,6.80
2022-10-16T06:42:09.115Z,5.00
2022-10-16T06:43:11.620Z,5.00
2022-10-16T06:44:15.092Z,5.17
2022-10-16T06:45:17.695Z,5.28
2022-10-16T06:46:22.194Z,6.40
2022-10-16T06:47:31.118Z,4.80
2022-10-16T06:48:41.317Z,4.47
2022-10-16T06:49:54.403Z,6.00
2022-10-16T06:50:58.275Z,6.17
2022-10-16T06:52:09.170Z,5.85
2022-10-16T06:53:11.709Z,5.43
2022-10-16T06:54:15.187Z,6.03
2022-10-16T06:55:18.217Z,4.70
2022-10-16T06:56:22.684Z,3.88
2022-10-16T06:57:32.166Z,5.77
2022-10-16T06:58:35.653Z,4.13
2022-10-16T06:59:47.101Z,4.43
2022-10-16T07:00:49.923Z,4.53
2022-10-16T07:01:53.377Z,4.78
2022-10-16T07:02:56.005Z,6.25
2022-10-16T07:03:59.885Z,5.03
2022-10-16T07:05:12.141Z,5.05
2022-10-16T07:06:16.088Z,4.18
2022-10-16T07:07:19.562Z,3.47
2022-10-16T07:08:22.173Z,5.10
2022-10-16T07:09:32.256Z,3.37
2022-10-16T07:10:34.983Z,3.45
2022-10-16T07:11:39.510Z,4.13
2022-10-16T07:12:42.684Z,5.38
2022-10-16T07:13:50.835Z,3.87
2022-10-16T07:15:04.167Z,3.92
2022-10-16T07:16:07.337Z,4.38
2022-10-16T07:17:10.909Z,4.60
2022-10-16T07:18:13.492Z,4.68
2022-10-16T07:19:18.727Z,4.10
2022-10-16T07:20:29.109Z,5.57
2022-10-16T07:21:36.697Z,3.40
2022-10-16T07:22:39.536Z,5.63
2022-10-16T07:23:43.060Z,4.97
2022-10-16T07:24:52.828Z,4.23
2022-10-16T07:25:57.154Z,4.30
2022-10-16T07:26:59.735Z,4.60
2022-10-16T07:28:03.361Z,6.13
2022-10-16T07:29:07.059Z,4.28
2022-10-16T07:30:17.153Z,5.70
2022-10-16T07:31:28.148Z,4.73
2022-10-16T07:32:30.711Z,4.87
2022-10-16T07:33:34.638Z,4.50
2022-10-16T07:34:37.234Z,4.55
2022-10-16T07:35:49.905Z,4.30
2022-10-16T07:37:00.201Z,4.07
2022-10-16T07:38:02.742Z,5.07
2022-10-16T07:39:06.788Z,4.37
2022-10-16T07:40:10.793Z,4.03
2022-10-16T07:41:14.063Z,4.20
2022-10-16T07:42:24.174Z,4.57
2022-10-16T07:43:27.007Z,4.43
2022-10-16T07:44:30.651Z,4.30
2022-10-16T07:45:33.169Z,5.17
2022-10-16T07:46:37.038Z,4.47
2022-10-16T07:47:54.157Z,4.50
2022-10-16T07:49:11.156Z,5.17
2022-10-16T07:50:14.662Z,4.87
2022-10-16T07:51:19.929Z,5.57
2022-10-16T07:52:30.146Z,4.27
2022-10-16T07:53:32.868Z,5.97
2022-10-16T07:54:43.221Z,4.93
2022-10-16T07:55:45.996Z,4.07
2022-10-16T07:56:49.491Z,5.67
2022-10-16T07:57:52.015Z,5.77
2022-10-16T07:58:55.750Z,5.40
2022-10-16T08:00:06.133Z,5.57
2022-10-16T08:01:10.349Z,5.27
2022-10-16T08:02:13.023Z,5.87
2022-10-16T08:03:16.530Z,5.50
2022-10-16T08:04:26.229Z,6.23
2022-10-16T08:05:29.791Z,6.50
2022-10-16T08:06:37.448Z,5.83
2022-10-16T08:07:41.419Z,5.63
2022-10-16T08:08:45.006Z,6.67
2022-10-16T08:09:58.138Z,5.23
2022-10-16T08:11:04.545Z,4.67
2022-10-16T08:12:14.157Z,6.60
2022-10-16T08:13:17.662Z,5.17
2022-10-16T08:14:21.201Z,5.97
2022-10-16T08:15:30.153Z,6.70
2022-10-16T08:16:40.179Z,5.93
2022-10-16T08:17:42.692Z,6.17
2022-10-16T08:18:46.238Z,5.40
2022-10-16T08:19:49.098Z,4.53
2022-10-16T08:20:58.078Z,6.27
2022-10-16T08:22:08.204Z,5.77
2022-10-16T08:23:13.010Z,6.90
2022-10-16T08:24:23.141Z,6.03
2022-10-16T08:25:33.152Z,7.53
2022-10-16T08:26:43.186Z,6.33
2022-10-16T08:27:45.875Z,5.47
2022-10-16T08:28:52.558Z,5.70
2022-10-16T08:30:02.161Z,6.63
2022-10-16T08:31:09.563Z,6.43
2022-10-16T08:32:12.177Z,6.53
2022-10-16T08:33:15.841Z,5.70
2022-10-16T08:34:19.384Z,6.87
2022-10-16T08:35:28.196Z,6.17
2022-10-16T08:36:31.674Z,6.90
2022-10-16T08:37:34.450Z,5.10
2022-10-16T08:38:39.525Z,7.30
2022-10-16T08:39:42.070Z,6.93
2022-10-16T08:40:53.720Z,6.33
2022-10-16T08:42:18.119Z,5.43
2022-10-16T08:43:28.933Z,8.43
2022-10-16T08:44:46.071Z,6.13
2022-10-16T08:46:02.142Z,6.00
2022-10-16T08:47:15.541Z,4.13
2022-10-16T08:48:34.182Z,7.03
2022-10-16T08:49:37.306Z,5.73
2022-10-16T08:50:48.186Z,5.43
2022-10-16T08:51:51.900Z,5.23
2022-10-16T08:52:55.499Z,6.20
2022-10-16T08:54:01.145Z,8.70
2022-10-16T08:55:04.039Z,5.03
2022-10-16T08:56:14.208Z,6.53
2022-10-16T08:57:21.616Z,6.13
2022-10-16T08:58:30.080Z,6.73
2022-10-16T08:59:33.281Z,4.87
2022-10-16T09:00:36.870Z,5.67
2022-10-16T09:01:48.187Z,6.97
2022-10-16T09:02:55.130Z,4.97
2022-10-16T09:04:05.613Z,5.23
2022-10-16T09:05:25.844Z,6.67
2022-10-16T09:06:31.940Z,6.30
2022-10-16T09:07:46.174Z,5.33
2022-10-16T09:08:53.688Z,7.53
2022-10-16T09:10:05.600Z,5.80
2022-10-16T09:11:12.114Z,6.13
2022-10-16T09:12:18.971Z,6.47
2022-10-16T09:13:33.179Z,5.90
2022-10-16T09:14:42.463Z,5.07
2022-10-16T09:15:50.788Z,6.43
2022-10-16T09:16:55.881Z,6.40
2022-10-16T09:18:04.253Z,5.50
2022-10-16T09:19:18.174Z,6.80
2022-10-16T09:20:25.910Z,7.30
2022-10-16T09:21:30.529Z,5.83
2022-10-16T09:22:33.707Z,4.83
2022-10-16T09:23:37.888Z,5.77
2022-10-16T09:24:47.161Z,5.57
2022-10-16T09:25:52.727Z,5.17
2022-10-16T09:26:55.343Z,6.63
2022-10-16T09:27:59.070Z,6.73
2022-10-16T09:29:09.256Z,5.43
2022-10-16T09:30:13.493Z,5.27
2022-10-16T09:31:20.282Z,4.60
2022-10-16T09:32:23.104Z,4.03
2022-10-16T09:33:28.302Z,5.47
2022-10-16T09:34:39.189Z,5.57
2022-10-16T09:35:50.213Z,6.53
2022-10-16T09:36:54.495Z,6.33
2022-10-16T09:37:57.072Z,6.57
2022-10-16T09:39:07.863Z,5.50
2022-10-16T09:40:14.092Z,5.27
2022-10-16T09:41:28.220Z,5.67
2022-10-16T09:42:33.582Z,7.20
2022-10-16T09:43:40.759Z,5.17
2022-10-16T09:44:43.457Z,6.07
2022-10-16T09:45:56.357Z,5.93
2022-10-16T09:47:12.205Z,5.73
2022-10-16T09:48:27.433Z,5.63
2022-10-16T09:49:36.474Z,4.50
2022-10-16T09:50:39.959Z,4.93
2022-10-16T09:51:50.223Z,5.63
2022-10-16T09:52:52.864Z,5.70
2022-10-16T09:54:01.115Z,6.27
2022-10-16T09:55:04.971Z,6.07
2022-10-16T09:56:11.727Z,6.30
2022-10-16T09:57:24.691Z,5.90
2022-10-16T09:58:28.535Z,6.00
2022-10-16T09:59:32.138Z,5.67
2022-10-16T10:00:35.983Z,4.80
2022-10-16T10:01:40.469Z,7.07
2022-10-16T10:02:49.198Z,4.13
2022-10-16T10:03:54.291Z,5.80
2022-10-16T10:04:57.891Z,6.13
2022-10-16T10:06:09.955Z,5.83
2022-10-16T10:07:27.548Z,5.40
2022-10-16T10:08:30.415Z,5.73
2022-10-16T10:09:35.895Z,5.70
2022-10-16T10:10:41.340Z,7.47
2022-10-16T10:13:06.025Z,6.47
2022-10-16T10:14:11.094Z,6.13
2022-10-16T10:15:15.177Z,5.47
2022-10-16T10:16:25.866Z,5.90
2022-10-16T10:17:36.214Z,5.53
2022-10-16T10:18:38.778Z,6.90
2022-10-16T10:19:43.184Z,7.50
2022-10-16T10:20:46.851Z,7.13
2022-10-16T10:21:49.936Z,6.13
2022-10-16T10:23:00.175Z,6.63
2022-10-16T10:24:02.786Z,5.57
2022-10-16T10:25:22.050Z,6.23
2022-10-16T10:26:26.456Z,5.83
2022-10-16T10:27:42.208Z,8.03
2022-10-16T10:29:00.295Z,6.07
2022-10-16T10:30:05.518Z,5.83
2022-10-16T10:31:13.625Z,6.83
2022-10-16T10:32:21.558Z,5.43
2022-10-16T10:33:35.238Z,6.47
2022-10-16T10:34:44.116Z,5.80
2022-10-16T10:35:52.336Z,6.40
2022-10-16T10:36:58.958Z,6.77
2022-10-16T10:38:07.917Z,6.27
2022-10-16T10:40:30.070Z,6.47
2022-10-16T10:41:51.202Z,5.63
2022-10-16T10:43:06.222Z,5.73
2022-10-16T10:44:22.224Z,5.17
2022-10-16T10:45:29.401Z,4.73
2022-10-16T10:46:34.210Z,4.53
2022-10-16T10:47:48.363Z,6.53
2022-10-16T10:49:12.245Z,6.07
2022-10-16T10:50:19.816Z,6.10
2022-10-16T10:51:25.158Z,7.13
2022-10-16T10:52:37.269Z,5.83
2022-10-16T10:53:43.817Z,6.83
2022-10-16T10:54:58.199Z,5.77
2022-10-16T10:56:08.162Z,5.27
2022-10-16T10:57:12.528Z,6.33
2022-10-16T10:58:35.877Z,4.37
2022-10-16T11:00:10.207Z,6.50
2022-10-16T11:01:14.628Z,3.80
2022-10-16T11:02:27.475Z,5.10
2022-10-16T11:03:38.001Z,6.30
2022-10-16T11:04:55.330Z,5.57
2022-10-16T11:05:59.451Z,6.03
2022-10-16T11:07:09.211Z,6.43
2022-10-16T11:08:16.604Z,6.60
2022-10-16T11:09:22.013Z,4.97
2022-10-16T11:10:27.435Z,6.73
2022-10-16T11:11:33.046Z,5.80
2022-10-16T11:12:45.218Z,6.20
2022-10-16T11:13:54.998Z,4.60
2022-10-16T11:15:02.689Z,5.73
2022-10-16T11:16:21.386Z,6.67
2022-10-16T11:17:27.291Z,6.67
2022-10-16T11:18:43.264Z,4.80
2022-10-16T11:19:49.641Z,5.63
2022-10-16T11:21:08.415Z,5.00
2022-10-16T11:22:28.206Z,4.83
2022-10-16T11:23:33.448Z,4.77
2022-10-16T11:24:46.273Z,4.80
2022-10-16T11:25:51.470Z,4.03
2022-10-16T11:26:55.920Z,5.13
2022-10-16T11:28:01.637Z,5.43
2022-10-16T11:29:06.300Z,4.67
2022-10-16T11:30:23.230Z,4.70
2022-10-16T11:31:30.181Z,6.07
2022-10-16T11:32:36.779Z,6.00
2022-10-16T11:33:41.805Z,4.33
2022-10-16T11:34:47.821Z,4.50
2022-10-16T11:35:59.235Z,4.63
2022-10-16T11:37:05.358Z,4.63
2022-10-16T11:38:12.589Z,5.17
2022-10-16T11:39:22.340Z,4.27
2022-10-16T11:40:27.910Z,4.87
2022-10-16T11:41:41.686Z,4.03
2022-10-16T11:42:48.389Z,5.17
2022-10-16T11:43:55.798Z,3.67
2022-10-16T11:45:01.924Z,4.87
2022-10-16T11:46:11.322Z,4.07
2022-10-16T11:47:57.502Z,3.23
2022-10-16T11:48:59.472Z,3.10
2022-10-16T11:50:15.899Z,3.20
2022-10-16T11:51:24.521Z,4.10
2022-10-16T11:52:36.234Z,3.50
2022-10-16T11:53:44.430Z,3.83
2022-10-16T11:54:50.622Z,2.90
2022-10-16T11:55:53.188Z,2.77
2022-10-16T11:56:58.025Z,3.03
2022-10-16T11:58:12.220Z,4.03
2022-10-16T11:59:18.781Z,2.40
2022-10-16T12:00:30.200Z,3.80
2022-10-16T12:01:39.145Z,2.97
2022-10-16T12:02:50.768Z,2.73
2022-10-16T12:04:01.974Z,2.83
2022-10-16T12:05:22.246Z,3.87
2022-10-16T12:06:27.914Z,3.67
2022-10-16T12:07:35.547Z,3.03
2022-10-16T12:08:38.408Z,2.93
2022-10-16T12:09:49.338Z,3.30
2022-10-16T12:10:58.257Z,3.33
2022-10-16T12:12:02.081Z,3.77
2022-10-16T12:13:05.319Z,3.70
2022-10-16T12:14:10.655Z,3.63
2022-10-16T12:15:57.590Z,2.50
2022-10-16T12:17:03.218Z,2.97
2022-10-16T12:18:05.866Z,3.17
2022-10-16T12:19:14.291Z,2.47
2022-10-16T12:20:26.641Z,3.03
2022-10-16T12:21:39.251Z,3.83
2022-10-16T12:22:44.718Z,3.03
2022-10-16T12:23:51.241Z,3.17
2022-10-16T12:24:55.012Z,3.10
2022-10-16T12:25:58.167Z,3.17
2022-10-16T12:27:09.207Z,2.47
2022-10-16T12:28:20.938Z,3.47
2022-10-16T12:29:35.006Z,3.50
2022-10-16T12:30:39.437Z,3.40
2022-10-16T12:31:58.449Z,3.20
2022-10-16T12:33:12.230Z,2.83
2022-10-16T12:34:22.338Z,3.60
2022-10-16T12:35:27.033Z,2.33
2022-10-16T12:36:31.706Z,3.67
2022-10-16T12:37:35.554Z,3.47
2022-10-16T12:38:47.358Z,2.97
2022-10-16T12:39:50.589Z,2.60
2022-10-16T12:40:59.818Z,2.67
2022-10-16T12:42:03.396Z,3.53
2022-10-16T12:43:28.910Z,2.33
2022-10-16T12:44:42.235Z,3.13
2022-10-16T12:45:47.352Z,2.93
2022-10-16T12:46:51.890Z,2.03
2022-10-16T12:48:02.419Z,2.53
2022-10-16T12:49:40.265Z,2.40
2022-10-16T12:50:43.762Z,3.10
2022-10-16T12:51:46.304Z,2.40
2022-10-16T12:52:56.276Z,2.57
2022-10-16T12:54:03.174Z,3.43
2022-10-16T12:55:18.063Z,2.20
2022-10-16T12:56:25.880Z,2.40
2022-10-16T12:57:36.753Z,2.80
2022-10-16T12:59:06.302Z,2.30
2022-10-16T13:00:15.910Z,2.70
2022-10-16T13:01:23.430Z,2.83
2022-10-16T13:02:42.469Z,2.60
2022-10-16T13:04:01.889Z,3.17
2022-10-16T13:05:21.255Z,2.80
2022-10-16T13:06:29.853Z,2.73
2022-10-16T13:07:51.937Z,2.57
2022-10-16T13:09:10.591Z,2.83
2022-10-16T13:10:26.310Z,2.00
2022-10-16T13:11:54.214Z,2.80
2022-10-16T13:13:12.511Z,2.70
2022-10-16T13:14:27.794Z,2.73
2022-10-16T13:15:46.309Z,2.47
2022-10-16T13:16:52.165Z,2.17
2022-10-16T13:17:59.642Z,2.40
2022-10-16T13:19:09.589Z,3.17
2022-10-16T13:20:20.122Z,2.77
2022-10-16T13:21:40.421Z,2.00
2022-10-16T13:22:51.567Z,1.53
2022-10-16T13:24:00.165Z,3.37
2022-10-16T13:25:16.033Z,3.23
2022-10-16T13:26:24.978Z,2.27
2022-10-16T13:27:38.329Z,2.13
2022-10-16T13:28:41.977Z,2.67
2022-10-16T13:29:44.610Z,2.53
2022-10-16T13:30:54.509Z,2.03
2022-10-16T13:31:57.124Z,1.87
2022-10-16T13:33:09.269Z,2.07
2022-10-16T13:34:15.687Z,2.20
2022-10-16T13:35:24.244Z,2.03
2022-10-16T13:36:28.664Z,2.90
2022-10-16T13:37:31.299Z,2.27
2022-10-16T13:38:42.239Z,2.87
2022-10-16T13:39:44.796Z,2.43
2022-10-16T13:40:52.002Z,2.40
2022-10-16T13:42:06.397Z,2.80
2022-10-16T13:43:12.421Z,2.33
2022-10-16T13:44:24.259Z,3.30
2022-10-16T13:45:28.032Z,2.50
2022-10-16T13:46:35.415Z,2.57
2022-10-16T13:47:37.965Z,2.53
2022-10-16T13:48:54.341Z,2.63
2022-10-16T13:50:10.501Z,2.57
2022-10-16T13:51:17.286Z,2.57
2022-10-16T13:52:20.872Z,2.63
2022-10-16T13:53:24.338Z,2.20
2022-10-16T13:54:34.316Z,2.33
2022-10-16T13:55:37.771Z,3.50
2022-10-16T13:56:42.545Z,2.73
2022-10-16T13:57:46.328Z,2.97
2022-10-16T13:58:59.730Z,2.17
2022-10-16T14:00:09.310Z,2.80
2022-10-16T14:01:19.679Z,2.73
2022-10-16T14:02:25.209Z,2.80
2022-10-16T14:03:30.236Z,2.70
2022-10-16T14:04:34.048Z,3.50
2022-10-16T14:05:44.309Z,2.77
2022-10-16T14:06:50.702Z,3.13
2022-10-16T14:07:54.692Z,2.17
2022-10-16T14:09:01.467Z,2.97
2022-10-16T14:10:06.518Z,2.53
2022-10-16T14:11:15.256Z,2.57
2022-10-16T14:12:20.269Z,2.47
2022-10-16T14:13:31.584Z,2.10
2022-10-16T14:14:38.021Z,3.53
2022-10-16T14:15:47.263Z,2.63
2022-10-16T14:16:50.922Z,2.87
2022-10-16T14:17:54.810Z,3.03
2022-10-16T14:19:00.149Z,2.43
2022-10-16T14:20:06.660Z,3.03
2022-10-16T14:21:21.275Z,3.30
2022-10-16T14:22:37.271Z,2.33
2022-10-16T14:23:41.633Z,2.50
2022-10-16T14:24:44.238Z,3.10
2022-10-16T14:25:47.887Z,2.80
2022-10-16T14:26:51.629Z,3.07
2022-10-16T14:28:08.321Z,2.47
2022-10-16T14:29:15.510Z,2.60
2022-10-16T14:30:19.876Z,2.60
2022-10-16T14:31:27.277Z,2.57
2022-10-16T14:32:30.250Z,3.23
2022-10-16T14:33:44.277Z,2.80
2022-10-16T14:34:55.856Z,3.40
2022-10-16T14:36:03.027Z,3.13
2022-10-16T14:37:10.670Z,3.20
2022-10-16T14:38:27.297Z,2.40
2022-10-16T14:39:31.041Z,3.13
2022-10-16T14:40:34.302Z,3.47
2022-10-16T14:41:44.635Z,3.37
2022-10-16T14:42:47.890Z,3.40
2022-10-16T14:44:00.517Z,4.07
2022-10-16T14:45:04.005Z,3.10
2022-10-16T14:46:08.993Z,3.33
2022-10-16T14:47:15.798Z,2.73
2022-10-16T14:48:39.261Z,3.13
2022-10-16T14:49:50.274Z,3.33
2022-10-16T14:50:53.760Z,3.27
2022-10-16T14:51:57.413Z,2.60
2022-10-16T14:53:00.607Z,3.30
2022-10-16T14:54:05.744Z,2.43
2022-10-16T14:55:16.368Z,3.77
2022-10-16T14:56:21.001Z,3.10
2022-10-16T14:57:26.459Z,3.43
2022-10-16T14:58:30.105Z,3.10